createdAt,value
2023-03-29T00:00:43.288Z,54394.25
2023-03-29T00:03:09.747Z,54414.91
2023-03-29T00:05:38.778Z,54421.13
2023-03-29T00:08:05.067Z,54388.03
2023-03-29T00:10:32.117Z,54338.41
2023-03-29T00:12:58.873Z,54340.47
2023-03-29T00:15:25.313Z,54332.22
2023-03-29T00:17:51.622Z,54313.59
2023-03-29T00:20:17.946Z,54259.84
2023-03-29T00:22:44.382Z,54245.34
2023-03-29T00:25:11.666Z,54199.88
2023-03-29T00:27:40.611Z,54179.19
2023-03-29T00:30:07.718Z,54183.31
2023-03-29T00:32:34.124Z,54183.31
2023-03-29T00:35:05.897Z,54154.38
2023-03-29T00:37:32.341Z,54146.09
2023-03-29T00:39:58.875Z,54146.09
2023-03-29T00:42:25.584Z,54119.22
2023-03-29T00:44:54.845Z,54137.84
2023-03-29T00:47:24.830Z,54127.50
2023-03-29T00:49:52.557Z,54125.44
2023-03-29T00:52:21.228Z,54100.63
2023-03-29T00:54:48.608Z,54096.47
2023-03-29T00:57:16.039Z,54104.75
2023-03-29T00:59:42.514Z,54067.53
2023-03-29T01:02:11.369Z,54092.34
2023-03-29T01:04:42.587Z,54125.44
2023-03-29T01:07:21.104Z,54075.78
2023-03-29T01:09:48.888Z,54075.78
2023-03-29T01:12:17.055Z,54057.19
2023-03-29T01:14:54.118Z,54044.78
2023-03-29T01:17:25.315Z,54022.03
2023-03-29T01:19:58.013Z,53997.22
2023-03-29T01:22:28.148Z,53968.28
2023-03-29T01:24:54.989Z,53978.63
2023-03-29T01:27:40.110Z,53978.63
2023-03-29T01:30:12.008Z,53945.53
2023-03-29T01:32:45.515Z,53984.81
2023-03-29T01:35:15.894Z,53955.88
2023-03-29T01:37:57.519Z,53964.16
2023-03-29T01:40:23.989Z,53922.78
2023-03-29T01:42:53.500Z,53957.94
2023-03-29T01:45:24.793Z,53920.72
2023-03-29T01:48:00.489Z,53933.13
2023-03-29T01:50:33.037Z,53931.06
2023-03-29T01:53:07.466Z,53955.88
2023-03-29T01:55:38.491Z,53922.78
2023-03-29T01:58:05.033Z,53924.84
2023-03-29T02:00:31.361Z,53918.66
2023-03-29T02:03:00.219Z,53922.78
2023-03-29T02:05:27.218Z,53897.97
2023-03-29T02:07:53.556Z,53887.63
2023-03-29T02:10:19.885Z,53889.72
2023-03-29T02:12:46.217Z,53908.31
2023-03-29T02:15:13.760Z,53916.59
2023-03-29T02:17:44.064Z,53893.84
2023-03-29T02:20:14.717Z,53854.56
2023-03-29T02:22:49.856Z,53875.22
2023-03-29T02:25:16.356Z,53869.03
2023-03-29T02:27:42.746Z,53864.91
2023-03-29T02:30:09.794Z,53852.50
2023-03-29T02:32:42.099Z,53854.56
2023-03-29T02:35:13.564Z,53871.09
2023-03-29T02:37:41.009Z,53856.63
2023-03-29T02:40:07.974Z,53866.97
2023-03-29T02:42:34.293Z,53848.34
2023-03-29T02:45:00.835Z,53840.09
2023-03-29T02:47:31.906Z,53864.91
2023-03-29T02:49:58.821Z,53833.88
2023-03-29T02:52:33.393Z,53838.00
2023-03-29T02:55:00.712Z,53840.09
2023-03-29T02:57:29.581Z,53842.16
2023-03-29T02:59:56.862Z,53852.50
2023-03-29T03:02:25.745Z,53852.50
2023-03-29T03:04:52.418Z,53844.22
2023-03-29T03:07:19.918Z,53829.75
2023-03-29T03:09:47.613Z,53835.94
2023-03-29T03:12:13.881Z,53838.00
2023-03-29T03:14:41.451Z,53844.22
2023-03-29T03:17:07.760Z,53846.28
2023-03-29T03:19:34.045Z,53821.47
2023-03-29T03:22:00.356Z,53840.09
2023-03-29T03:24:28.010Z,53844.22
2023-03-29T03:26:54.468Z,53852.50
2023-03-29T03:29:20.784Z,53844.22
2023-03-29T03:31:47.127Z,53873.16
2023-03-29T03:34:13.443Z,53881.44
2023-03-29T03:36:39.739Z,53931.06
2023-03-29T03:39:07.221Z,53955.88
2023-03-29T03:41:34.373Z,54048.91
2023-03-29T03:44:03.134Z,54086.13
2023-03-29T03:46:29.846Z,54137.84
2023-03-29T03:48:56.296Z,54177.13
2023-03-29T03:51:22.638Z,54241.22
2023-03-29T03:53:48.999Z,54249.50
2023-03-29T03:56:16.183Z,54280.50
2023-03-29T03:58:42.483Z,54299.13
2023-03-29T04:01:10.086Z,54288.78
2023-03-29T04:03:37.631Z,54315.66
2023-03-29T04:06:04.313Z,54315.66
2023-03-29T04:08:31.596Z,54338.41
2023-03-29T04:10:58.369Z,54367.34
2023-03-29T04:13:24.951Z,54326.00
2023-03-29T04:15:54.146Z,54359.09
2023-03-29T04:18:21.217Z,54431.47
2023-03-29T04:20:50.078Z,54503.84
2023-03-29T04:23:16.778Z,54543.13
2023-03-29T04:25:43.113Z,54551.41
2023-03-29T04:28:10.160Z,54576.22
2023-03-29T04:30:36.499Z,54567.94
2023-03-29T04:33:02.887Z,54541.06
2023-03-29T04:35:29.260Z,54578.28
2023-03-29T04:37:55.586Z,54547.28
2023-03-29T04:40:21.880Z,54524.53
2023-03-29T04:42:48.215Z,54559.69
2023-03-29T04:45:14.653Z,54510.03
2023-03-29T04:47:41.895Z,54576.22
2023-03-29T04:50:08.367Z,54679.63
2023-03-29T04:52:34.794Z,54729.25
2023-03-29T04:55:01.484Z,54820.25
2023-03-29T04:57:28.300Z,54985.72
2023-03-29T04:59:54.702Z,55138.75
2023-03-29T05:02:20.990Z,55298.03
2023-03-29T05:04:47.318Z,55521.41
2023-03-29T05:07:15.533Z,55786.19
2023-03-29T05:09:42.499Z,56044.78
2023-03-29T05:12:08.794Z,56338.56
2023-03-29T05:14:35.125Z,56773.03
2023-03-29T05:17:01.493Z,57186.91
2023-03-29T05:19:27.981Z,57625.63
2023-03-29T05:21:54.314Z,57991.97
2023-03-29T05:24:21.213Z,58480.47
2023-03-29T05:26:53.648Z,58840.66
2023-03-29T05:29:20.044Z,59260.94
2023-03-29T05:31:47.120Z,59741.31
2023-03-29T05:34:13.546Z,59869.69
2023-03-29T05:36:40.073Z,60230.03
2023-03-29T05:39:06.862Z,60488.91
2023-03-29T05:41:33.649Z,60325.28
2023-03-29T05:43:59.978Z,60644.25
2023-03-29T05:46:26.892Z,60737.44
2023-03-29T05:48:55.758Z,60942.50
2023-03-29T05:51:24.454Z,61228.34
2023-03-29T05:53:51.315Z,61340.22
2023-03-29T05:56:18.821Z,61352.63
2023-03-29T05:58:46.822Z,61046.06
2023-03-29T06:01:17.722Z,60886.56
2023-03-29T06:03:46.023Z,60430.91
2023-03-29T06:06:15.110Z,59981.53
2023-03-29T06:08:41.798Z,59677.13
2023-03-29T06:11:11.074Z,59451.44
2023-03-29T06:13:38.770Z,59403.81
2023-03-29T06:16:06.024Z,59178.13
2023-03-29T06:18:32.731Z,59310.63
2023-03-29T06:20:59.063Z,58908.97
2023-03-29T06:23:25.837Z,58569.47
2023-03-29T06:25:52.393Z,58138.91
2023-03-29T06:28:19.106Z,57842.94
2023-03-29T06:30:46.025Z,57379.34
2023-03-29T06:33:13.031Z,57008.94
2023-03-29T06:35:41.764Z,56768.91
2023-03-29T06:38:08.196Z,56582.69
2023-03-29T06:40:34.503Z,56259.94
2023-03-29T06:43:00.791Z,56024.09
2023-03-29T06:45:29.335Z,55821.34
2023-03-29T06:47:55.866Z,55784.13
2023-03-29T06:50:23.318Z,55666.22
2023-03-29T06:52:49.915Z,55482.13
2023-03-29T06:55:16.420Z,55329.03
2023-03-29T06:57:43.010Z,55184.25
2023-03-29T07:00:19.476Z,55198.75
2023-03-29T07:02:46.489Z,54996.06
2023-03-29T07:05:13.500Z,54946.41
2023-03-29T07:08:11.647Z,54888.50
2023-03-29T07:10:39.418Z,54884.38
2023-03-29T07:13:06.198Z,54836.81
2023-03-29T07:15:33.133Z,54743.72
2023-03-29T07:17:59.579Z,54605.19
2023-03-29T07:20:26.948Z,54601.03
2023-03-29T07:22:53.693Z,54543.13
2023-03-29T07:25:21.359Z,54495.56
2023-03-29T07:27:47.944Z,54404.59
2023-03-29T07:30:22.715Z,54394.25
2023-03-29T07:32:50.720Z,54321.88
2023-03-29T07:35:17.445Z,54263.97
2023-03-29T07:37:44.490Z,54226.75
2023-03-29T07:40:24.614Z,54187.47
2023-03-29T07:42:52.435Z,54164.72
2023-03-29T07:45:20.349Z,54164.72
2023-03-29T07:47:57.520Z,54088.19
2023-03-29T07:50:24.084Z,54088.19
2023-03-29T07:52:50.935Z,54055.13
2023-03-29T07:55:17.425Z,54065.47
2023-03-29T07:57:44.376Z,54013.75
2023-03-29T08:00:12.676Z,54040.66
2023-03-29T08:02:39.141Z,53991.03
2023-03-29T08:05:08.204Z,53964.16
2023-03-29T08:07:34.547Z,53916.59
2023-03-29T08:10:01.016Z,53914.53
2023-03-29T08:12:27.403Z,53817.34
2023-03-29T08:14:53.708Z,53858.69
2023-03-29T08:17:20.033Z,53821.47
2023-03-29T08:19:50.807Z,53807.00
2023-03-29T08:22:17.934Z,53823.53
2023-03-29T08:24:44.247Z,53860.75
2023-03-29T08:27:11.188Z,53763.59
2023-03-29T08:29:37.644Z,53778.06
2023-03-29T08:32:04.378Z,53786.31
2023-03-29T08:34:31.724Z,53780.13
2023-03-29T08:36:59.038Z,53809.06
2023-03-29T08:39:25.396Z,53877.31
2023-03-29T08:42:10.695Z,53955.88
2023-03-29T08:44:55.893Z,54191.59
2023-03-29T08:47:41.480Z,54468.69
2023-03-29T08:50:08.730Z,54934.00
2023-03-29T08:52:36.682Z,55180.13
2023-03-29T08:55:04.193Z,55782.06
2023-03-29T08:57:31.919Z,56125.47
2023-03-29T08:59:58.967Z,56239.25
2023-03-29T09:02:30.476Z,56189.59
2023-03-29T09:05:00.208Z,56299.25
2023-03-29T09:07:26.745Z,56202.00
2023-03-29T09:09:53.360Z,56088.22
2023-03-29T09:12:25.934Z,56102.69
2023-03-29T09:15:08.530Z,56170.97
2023-03-29T09:17:41.072Z,55852.38
2023-03-29T09:20:26.228Z,55490.38
2023-03-29T09:22:55.974Z,55182.19
2023-03-29T09:25:25.204Z,54921.59
2023-03-29T09:27:51.456Z,54648.59
2023-03-29T09:30:26.184Z,54696.16
2023-03-29T09:32:53.644Z,54617.59
2023-03-29T09:35:24.276Z,54441.81
2023-03-29T09:37:51.246Z,54354.94
2023-03-29T09:40:19.369Z,54243.28
2023-03-29T09:42:45.834Z,54150.25
2023-03-29T09:45:12.206Z,54098.53
2023-03-29T09:47:40.692Z,53999.28
2023-03-29T09:50:31.562Z,54141.97
2023-03-29T09:52:58.417Z,54079.94
2023-03-29T09:55:29.022Z,54046.84
2023-03-29T09:57:55.993Z,54075.78
2023-03-29T10:00:22.388Z,54032.38
2023-03-29T10:02:52.881Z,53926.94
2023-03-29T10:05:19.909Z,53862.81
2023-03-29T10:07:50.820Z,53815.28
2023-03-29T10:10:24.469Z,53815.28
2023-03-29T10:12:51.841Z,53885.56
2023-03-29T10:15:29.245Z,53914.53
2023-03-29T10:18:00.695Z,53935.19
2023-03-29T10:20:27.394Z,53931.06
2023-03-29T10:22:57.740Z,53939.34
2023-03-29T10:25:31.756Z,53926.94
2023-03-29T10:28:05.992Z,53914.53
2023-03-29T10:30:33.760Z,53829.75
2023-03-29T10:33:00.194Z,53829.75
2023-03-29T10:35:33.670Z,53804.94
2023-03-29T10:38:00.126Z,53819.41
2023-03-29T10:40:27.857Z,53778.06
2023-03-29T10:42:54.394Z,53771.84
2023-03-29T10:45:22.875Z,53769.78
2023-03-29T10:47:49.244Z,53738.78
2023-03-29T10:50:15.705Z,53705.69
2023-03-29T10:52:42.072Z,53707.75
2023-03-29T10:55:09.792Z,53730.50
2023-03-29T10:57:47.301Z,53767.72
2023-03-29T11:00:17.720Z,53718.09
2023-03-29T11:02:53.530Z,53724.28
2023-03-29T11:05:20.246Z,53718.09
2023-03-29T11:08:05.289Z,53685.00
2023-03-29T11:10:38.415Z,53693.28
2023-03-29T11:13:14.101Z,53695.34
2023-03-29T11:16:02.705Z,53697.41
2023-03-29T11:18:29.093Z,53680.88
2023-03-29T11:21:14.272Z,53691.22
2023-03-29T11:23:49.786Z,53680.88
2023-03-29T11:26:34.960Z,53660.19
2023-03-29T11:29:08.144Z,53680.88
2023-03-29T11:31:38.844Z,53680.88
2023-03-29T11:34:15.467Z,53668.47
2023-03-29T11:36:50.343Z,53670.53
2023-03-29T11:39:26.182Z,53660.19
2023-03-29T11:41:56.367Z,53654.00
2023-03-29T11:44:24.468Z,53666.41
2023-03-29T11:46:55.519Z,53678.81
2023-03-29T11:49:27.260Z,53678.81
2023-03-29T11:51:54.604Z,53658.13
2023-03-29T11:54:25.852Z,53674.69
2023-03-29T11:56:54.913Z,53664.34
2023-03-29T11:59:32.730Z,53654.00
2023-03-29T12:02:04.242Z,53680.88
2023-03-29T12:04:32.263Z,53647.81
2023-03-29T12:07:08.649Z,53649.88
2023-03-29T12:09:37.548Z,53666.41
2023-03-29T12:12:03.798Z,53670.53
2023-03-29T12:14:33.483Z,53666.41
2023-03-29T12:17:04.247Z,53662.28
2023-03-29T12:19:38.679Z,53678.81
2023-03-29T12:22:08.049Z,53695.34
2023-03-29T12:24:34.470Z,53670.53
2023-03-29T12:27:03.955Z,53682.94
2023-03-29T12:29:39.352Z,53685.00
2023-03-29T12:32:24.514Z,53720.16
2023-03-29T12:35:09.827Z,53713.97
2023-03-29T12:37:41.392Z,53680.88
2023-03-29T12:40:12.323Z,53699.50
2023-03-29T12:42:45.603Z,53654.00
2023-03-29T12:45:19.081Z,53707.75
2023-03-29T12:47:45.522Z,53685.00
2023-03-29T12:50:28.850Z,53709.81
2023-03-29T12:53:13.141Z,53691.22
2023-03-29T12:55:42.489Z,53716.03
2023-03-29T12:58:20.796Z,53707.75
2023-03-29T13:00:47.977Z,53724.28
2023-03-29T13:03:22.349Z,53691.22
2023-03-29T13:05:58.548Z,53699.50
2023-03-29T13:08:33.246Z,53720.16
2023-03-29T13:10:59.563Z,53705.69
2023-03-29T13:13:27.515Z,53707.75
2023-03-29T13:15:53.959Z,53713.97
2023-03-29T13:18:27.093Z,53707.75
2023-03-29T13:20:59.433Z,53697.41
2023-03-29T13:23:43.400Z,53687.09
2023-03-29T13:26:25.237Z,53680.88
2023-03-29T13:28:56.637Z,53697.41
2023-03-29T13:32:03.319Z,53716.03
2023-03-29T13:34:36.322Z,53701.56
2023-03-29T13:37:21.106Z,53724.28
2023-03-29T13:39:49.066Z,53769.78
2023-03-29T13:42:27.686Z,53742.91
2023-03-29T13:44:54.094Z,53682.94
2023-03-29T13:47:29.555Z,53695.34
2023-03-29T13:49:56.826Z,53720.16
2023-03-29T13:52:39.405Z,53720.16
2023-03-29T13:55:08.589Z,53738.78
2023-03-29T13:57:37.473Z,53726.38
2023-03-29T14:00:13.553Z,53711.91
2023-03-29T14:02:49.653Z,53701.56
2023-03-29T14:05:21.783Z,53749.09
2023-03-29T14:07:49.495Z,53736.69
2023-03-29T14:10:16.552Z,53740.84
2023-03-29T14:12:42.966Z,53711.91
2023-03-29T14:15:18.198Z,53724.28
2023-03-29T14:17:44.527Z,53728.44
2023-03-29T14:20:14.736Z,53720.16
2023-03-29T14:22:42.040Z,53716.03
2023-03-29T14:25:16.052Z,53707.75
2023-03-29T14:27:42.575Z,53732.56
2023-03-29T14:30:28.234Z,53744.97
2023-03-29T14:32:54.800Z,53722.22
2023-03-29T14:35:22.863Z,53732.56
2023-03-29T14:37:49.279Z,53732.56
2023-03-29T14:40:19.285Z,53742.91
2023-03-29T14:42:46.510Z,53753.25
2023-03-29T14:45:14.129Z,53753.25
2023-03-29T14:47:40.778Z,53742.91
2023-03-29T14:50:08.983Z,53716.03
2023-03-29T14:52:35.311Z,53755.31
2023-03-29T14:55:02.251Z,53757.38
2023-03-29T14:57:32.290Z,53747.03
2023-03-29T14:59:59.665Z,53716.03
2023-03-29T15:02:29.977Z,53707.75
2023-03-29T15:04:57.768Z,53753.25
2023-03-29T15:07:24.615Z,53755.31
2023-03-29T15:09:51.845Z,53753.25
2023-03-29T15:12:18.161Z,53744.97
2023-03-29T15:14:44.454Z,53732.56
2023-03-29T15:17:23.389Z,53742.91
2023-03-29T15:20:00.750Z,53753.25
2023-03-29T15:22:33.866Z,53740.84
2023-03-29T15:25:01.612Z,53778.06
2023-03-29T15:27:28.105Z,53753.25
2023-03-29T15:30:02.799Z,53734.63
2023-03-29T15:32:37.043Z,53730.50
2023-03-29T15:35:04.957Z,53749.09
2023-03-29T15:37:31.299Z,53784.25
2023-03-29T15:39:58.315Z,53749.09
2023-03-29T15:42:24.896Z,53765.66
2023-03-29T15:44:53.805Z,53763.59
2023-03-29T15:47:20.160Z,53773.91
2023-03-29T15:49:47.280Z,53767.72
2023-03-29T15:52:13.576Z,53761.50
2023-03-29T15:54:39.873Z,53753.25
2023-03-29T15:57:07.223Z,53761.50
2023-03-29T15:59:34.089Z,53751.19
2023-03-29T16:02:00.500Z,53736.69
2023-03-29T16:04:26.917Z,53716.03
2023-03-29T16:06:54.127Z,53722.22
2023-03-29T16:09:21.408Z,53773.91
2023-03-29T16:11:48.055Z,53796.66
2023-03-29T16:14:18.898Z,53786.31
2023-03-29T16:16:45.321Z,53749.09
2023-03-29T16:19:11.780Z,53761.50
2023-03-29T16:21:38.038Z,53765.66
2023-03-29T16:24:04.413Z,53784.25
2023-03-29T16:26:31.929Z,53778.06
2023-03-29T16:28:58.330Z,53776.00
2023-03-29T16:31:26.850Z,53773.91
2023-03-29T16:33:53.862Z,53757.38
2023-03-29T16:36:20.344Z,53742.91
2023-03-29T16:38:47.481Z,53782.19
2023-03-29T16:41:14.933Z,53778.06
2023-03-29T16:43:41.325Z,53757.38
2023-03-29T16:46:09.147Z,53790.47
2023-03-29T16:48:36.148Z,53755.31
2023-03-29T16:51:03.168Z,53778.06
2023-03-29T16:53:30.253Z,53759.44
2023-03-29T16:55:57.377Z,53773.91
2023-03-29T16:58:24.132Z,53784.25
2023-03-29T17:00:51.872Z,53792.53
2023-03-29T17:03:18.227Z,53744.97
2023-03-29T17:05:51.804Z,53759.44
2023-03-29T17:08:18.567Z,53823.53
2023-03-29T17:10:45.191Z,53796.66
2023-03-29T17:13:13.293Z,53771.84
2023-03-29T17:15:40.112Z,53757.38
2023-03-29T17:18:07.096Z,53790.47
2023-03-29T17:20:33.489Z,53788.41
2023-03-29T17:22:59.856Z,53809.06
2023-03-29T17:25:26.154Z,53755.31
2023-03-29T17:27:53.933Z,53773.91
2023-03-29T17:30:20.625Z,53744.97
2023-03-29T17:32:47.008Z,53794.59
2023-03-29T17:35:14.214Z,53790.47
2023-03-29T17:37:41.816Z,53761.50
2023-03-29T17:40:14.235Z,53802.88
2023-03-29T17:42:46.307Z,53788.41
2023-03-29T17:45:12.588Z,53769.78
2023-03-29T17:47:38.959Z,53794.59
2023-03-29T17:50:06.107Z,53815.28
2023-03-29T17:52:32.400Z,53796.66
2023-03-29T17:54:58.706Z,53765.66
2023-03-29T17:57:25.239Z,53782.19
2023-03-29T17:59:51.547Z,53784.25
2023-03-29T18:02:19.079Z,53786.31
2023-03-29T18:04:45.392Z,53773.91
2023-03-29T18:07:11.713Z,53765.66
2023-03-29T18:09:38.054Z,53780.13
2023-03-29T18:12:04.514Z,53753.25
2023-03-29T18:14:30.810Z,53782.19
2023-03-29T18:16:57.193Z,53798.72
2023-03-29T18:19:23.597Z,53804.94
2023-03-29T18:21:49.879Z,53776.00
2023-03-29T18:24:16.187Z,53819.41
2023-03-29T18:26:42.633Z,53800.81
2023-03-29T18:29:09.977Z,53790.47
2023-03-29T18:31:36.528Z,53761.50
2023-03-29T18:34:03.076Z,53761.50
2023-03-29T18:36:30.250Z,53788.41
2023-03-29T18:38:56.774Z,53778.06
2023-03-29T18:41:26.396Z,53794.59
2023-03-29T18:43:54.575Z,53782.19
2023-03-29T18:46:21.165Z,53778.06
2023-03-29T18:48:48.246Z,53765.66
2023-03-29T18:51:14.900Z,53802.88
2023-03-29T18:53:42.911Z,53821.47
2023-03-29T18:56:09.276Z,53790.47
2023-03-29T18:58:36.122Z,53778.06
2023-03-29T19:01:04.052Z,53819.41
2023-03-29T19:03:30.998Z,53782.19
2023-03-29T19:05:57.512Z,53817.34
2023-03-29T19:08:23.913Z,53802.88
2023-03-29T19:10:50.434Z,53823.53
2023-03-29T19:13:16.806Z,53821.47
2023-03-29T19:15:43.186Z,53790.47
2023-03-29T19:18:09.556Z,53827.69
2023-03-29T19:20:36.161Z,53846.28
2023-03-29T19:23:03.522Z,53823.53
2023-03-29T19:25:33.064Z,53817.34
2023-03-29T19:27:59.453Z,53823.53
2023-03-29T19:30:25.819Z,53823.53
2023-03-29T19:32:52.217Z,53827.69
2023-03-29T19:35:18.674Z,53844.22
2023-03-29T19:37:45.011Z,53815.28
2023-03-29T19:40:11.624Z,53852.50
2023-03-29T19:42:38.289Z,53856.63
2023-03-29T19:45:05.497Z,53875.22
2023-03-29T19:47:31.807Z,53871.09
2023-03-29T19:49:58.488Z,53897.97
2023-03-29T19:52:25.246Z,53912.44
2023-03-29T19:54:51.579Z,53902.13
2023-03-29T19:57:20.428Z,53926.94
2023-03-29T19:59:47.004Z,53922.78
2023-03-29T20:02:13.422Z,53976.53
2023-03-29T20:04:40.076Z,53978.63
2023-03-29T20:07:06.564Z,53978.63
2023-03-29T20:09:32.916Z,54013.75
2023-03-29T20:11:59.423Z,54046.84
2023-03-29T20:14:25.775Z,54022.03
2023-03-29T20:16:53.990Z,54032.38
2023-03-29T20:19:26.785Z,54067.53
2023-03-29T20:21:57.875Z,54084.06
2023-03-29T20:24:24.472Z,54055.13
2023-03-29T20:26:51.164Z,54092.34
2023-03-29T20:29:17.739Z,54088.19
2023-03-29T20:31:44.661Z,54146.09
2023-03-29T20:34:11.431Z,54158.50
2023-03-29T20:36:38.638Z,54148.16
2023-03-29T20:39:05.049Z,54146.09
2023-03-29T20:41:31.572Z,54152.31
2023-03-29T20:43:58.410Z,54183.31
2023-03-29T20:46:32.957Z,54166.78
2023-03-29T20:49:00.477Z,54199.88
2023-03-29T20:51:32.828Z,54224.69
2023-03-29T20:54:04.776Z,54214.34
2023-03-29T20:56:32.109Z,54208.13
2023-03-29T20:58:58.844Z,54232.94
2023-03-29T21:01:25.999Z,54220.53
2023-03-29T21:03:52.388Z,54228.81
2023-03-29T21:06:19.135Z,54237.09
2023-03-29T21:08:46.066Z,54261.91
2023-03-29T21:11:13.059Z,54249.50
2023-03-29T21:13:40.774Z,54280.50
2023-03-29T21:16:07.335Z,54235.03
2023-03-29T21:18:36.166Z,54230.88
2023-03-29T21:21:05.119Z,54235.03
2023-03-29T21:23:31.542Z,54222.59
2023-03-29T21:25:57.875Z,54253.63
2023-03-29T21:28:24.167Z,54187.47
2023-03-29T21:30:50.856Z,54206.06
2023-03-29T21:33:17.149Z,54204.00
2023-03-29T21:35:43.503Z,54201.94
2023-03-29T21:38:09.865Z,54232.94
2023-03-29T21:40:36.616Z,54199.88
2023-03-29T21:43:02.919Z,54212.28
2023-03-29T21:45:29.244Z,54187.47
2023-03-29T21:47:55.599Z,54193.66
2023-03-29T21:50:22.043Z,54193.66
2023-03-29T21:52:48.736Z,54199.88
2023-03-29T21:55:15.194Z,54195.72
2023-03-29T21:57:41.483Z,54181.25
2023-03-29T22:00:11.240Z,54208.13
2023-03-29T22:02:38.177Z,54166.78
2023-03-29T22:05:06.746Z,54164.72
2023-03-29T22:07:38.659Z,54121.28
2023-03-29T22:10:06.281Z,54146.09
2023-03-29T22:12:34.354Z,54123.34
2023-03-29T22:15:00.876Z,54179.19
2023-03-29T22:17:28.499Z,54123.34
2023-03-29T22:19:56.979Z,54125.44
2023-03-29T22:22:24.331Z,54096.47
2023-03-29T22:24:54.686Z,54094.41
2023-03-29T22:27:21.529Z,54067.53
2023-03-29T22:29:47.856Z,54086.13
2023-03-29T22:32:14.391Z,54046.84
2023-03-29T22:34:43.042Z,54090.28
2023-03-29T22:37:09.374Z,54069.59
2023-03-29T22:39:36.593Z,54055.13
2023-03-29T22:42:03.213Z,54030.31
2023-03-29T22:44:29.554Z,53984.81
2023-03-29T22:46:55.849Z,54026.16
2023-03-29T22:49:22.272Z,54024.09
2023-03-29T22:51:48.771Z,53978.63
2023-03-29T22:54:15.070Z,54003.44
2023-03-29T22:56:41.447Z,53999.28
2023-03-29T22:59:07.857Z,53988.94
2023-03-29T23:01:34.259Z,53960.00
2023-03-29T23:04:00.638Z,53968.28
2023-03-29T23:06:27.129Z,53980.69
2023-03-29T23:08:53.501Z,53933.13
2023-03-29T23:11:19.853Z,53955.88
2023-03-29T23:13:48.681Z,53937.25
2023-03-29T23:16:15.521Z,53935.19
2023-03-29T23:18:41.904Z,53951.75
2023-03-29T23:21:09.263Z,53912.44
2023-03-29T23:23:35.659Z,53895.91
2023-03-29T23:26:02.362Z,53887.63
2023-03-29T23:28:30.452Z,53879.38
2023-03-29T23:31:02.415Z,53887.63
2023-03-29T23:33:33.511Z,53873.16
2023-03-29T23:36:00.507Z,53875.22
2023-03-29T23:38:27.728Z,53848.34
2023-03-29T23:40:58.995Z,53838.00
2023-03-29T23:43:27.203Z,53869.03
2023-03-29T23:45:56.963Z,53844.22
2023-03-29T23:48:23.932Z,53831.81
2023-03-29T23:50:50.310Z,53821.47
2023-03-29T23:53:16.642Z,53840.09
2023-03-29T23:55:42.982Z,53838.00
2023-03-29T23:58:09.297Z,53840.09
